Time;durP1;ratioP1;P1;durP2;ratioP2;P2;SDS_P1;SDS_P2;PMS_P1;PMS_P2;Temp;Humidity;BMP_temperature;BMP_pressure;BME280_temperature;BME280_humidity;BME280_pressure;Samples;Min_cycle;Max_cycle;Signal;HPM_P1;HPM_P2
2021/08/24 00:01:16;;;;;;;7.93;4.05;;;;;;;14.63;76.78;102353.06;4990131;28;20248;-77
2021/08/24 00:03:42;;;;;;;5.13;3.65;;;;;;;14.58;77.08;102358.72;5007723;28;20507;-77
2021/08/24 00:06:07;;;;;;;7.95;4.78;;;;;;;14.59;77.01;102356.94;4989077;28;20421;-77
2021/08/24 00:08:34;;;;;;;10.85;4.43;;;;;;;14.56;76.97;102346.75;4988671;28;20064;-77
2021/08/24 00:11:00;;;;;;;4.53;3.60;;;;;;;14.56;77.02;102346.75;5009806;28;20032;-77
2021/08/24 00:13:27;;;;;;;5.50;3.50;;;;;;;14.51;76.96;102360.22;4991847;28;20034;-77
2021/08/24 00:15:53;;;;;;;7.38;3.15;;;;;;;14.48;77.09;102347.47;5012614;28;20129;-77
2021/08/24 00:18:19;;;;;;;5.57;3.78;;;;;;;14.48;77.20;102355.28;5008817;28;20038;-77
2021/08/24 00:20:47;;;;;;;9.20;4.47;;;;;;;14.47;76.81;102355.47;5005328;28;20034;-77
2021/08/24 00:23:15;;;;;;;5.15;3.58;;;;;;;14.44;76.79;102358.34;4990672;28;20056;-77
2021/08/24 00:25:41;;;;;;;6.30;3.80;;;;;;;14.40;76.94;102361.22;5008016;28;20034;-77
2021/08/24 00:28:07;;;;;;;6.85;3.67;;;;;;;14.37;76.84;102358.09;5002573;28;20516;-77
2021/08/24 00:30:34;;;;;;;7.78;3.92;;;;;;;14.36;76.89;102362.47;4987627;28;20026;-77
2021/08/24 00:33:01;;;;;;;4.47;3.47;;;;;;;14.31;76.97;102356.88;5002651;28;20376;-77
2021/08/24 00:35:26;;;;;;;7.88;4.45;;;;;;;14.29;76.85;102355.38;5002972;28;20041;-77
2021/08/24 00:37:52;;;;;;;8.88;3.70;;;;;;;14.28;77.07;102356.31;4990487;28;20538;-76
2021/08/24 00:40:18;;;;;;;5.20;3.40;;;;;;;14.27;77.02;102354.69;4992650;28;20042;-77
2021/08/24 00:42:44;;;;;;;5.93;3.47;;;;;;;14.26;76.99;102355.66;4983214;28;20034;-77
2021/08/24 00:45:12;;;;;;;8.52;3.63;;;;;;;14.22;77.00;102360.31;4991000;28;20093;-77
2021/08/24 00:47:41;;;;;;;9.18;3.70;;;;;;;14.21;77.14;102359.50;4969994;28;20068;-77
2021/08/24 00:50:18;;;;;;;5.82;3.40;;;;;;;14.20;77.18;102352.66;5007604;28;20061;-77
2021/08/24 00:52:46;;;;;;;4.95;2.85;;;;;;;14.19;77.14;102358.03;4987203;28;20038;-77
2021/08/24 00:55:12;;;;;;;7.15;3.28;;;;;;;14.16;77.24;102351.28;5004255;28;20050;-77
2021/08/24 00:57:38;;;;;;;5.60;3.28;;;;;;;14.15;77.15;102362.69;5004839;28;20148;-78
2021/08/24 01:00:04;;;;;;;5.10;3.47;;;;;;;14.15;76.95;102359.28;5006958;28;20106;-77
2021/08/24 01:02:30;;;;;;;5.97;3.28;;;;;;;14.11;76.88;102363.94;4986877;28;20076;-77
2021/08/24 01:04:55;;;;;;;6.35;3.33;;;;;;;14.09;76.82;102362.41;4994610;28;20038;-77
2021/08/24 01:07:36;;;;;;;4.70;2.72;;;;;;;14.08;76.95;102360.78;5007423;28;20034;-77
2021/08/24 01:10:17;;;;;;;6.82;3.08;;;;;;;14.04;77.18;102362.84;5011133;28;20056;-78
2021/08/24 01:12:45;;;;;;;9.90;3.05;;;;;;;13.96;77.30;102360.97;5006431;28;20038;-77
2021/08/24 01:15:39;;;;;;;7.35;3.22;;;;;;;13.94;77.46;102359.47;5007405;28;20042;-77
2021/08/24 01:18:10;;;;;;;7.47;3.15;;;;;;;13.93;77.29;102365.63;4989645;28;20026;-77
2021/08/24 01:21:33;;;;;;;7.05;2.88;;;;;;;13.94;77.17;102364.69;5008065;28;20042;-77
2021/08/24 01:24:21;;;;;;;8.13;3.30;;;;;;;13.94;77.08;102357.66;4981978;28;20053;-77
2021/08/24 01:27:05;;;;;;;5.18;2.97;;;;;;;13.92;77.03;102362.22;4982765;28;20053;-77
2021/08/24 01:29:50;;;;;;;5.95;3.20;;;;;;;13.89;77.45;102365.06;5009477;28;20069;-77
2021/08/24 01:32:34;;;;;;;6.38;3.08;;;;;;;13.85;77.54;102366.31;4998251;28;20033;-77
2021/08/24 01:35:31;;;;;;;4.85;2.97;;;;;;;13.82;77.58;102370.03;5009051;28;20033;-76
2021/08/24 01:38:11;;;;;;;7.72;2.75;;;;;;;13.80;77.55;102371.94;4996237;28;20034;-77
2021/08/24 01:40:49;;;;;;;7.60;3.22;;;;;;;13.80;77.36;102368.53;4989967;28;20046;-77
2021/08/24 01:43:22;;;;;;;9.30;3.72;;;;;;;13.78;77.40;102370.44;4998677;28;20069;-77
2021/08/24 01:45:53;;;;;;;5.10;3.05;;;;;;;13.76;77.42;102380.19;4987614;28;20034;-76
2021/08/24 01:48:34;;;;;;;5.07;2.85;;;;;;;13.76;77.29;102374.97;4987917;28;20027;-77
2021/08/24 01:51:05;;;;;;;6.88;3.13;;;;;;;13.74;77.30;102375.09;5000295;28;20512;-77
2021/08/24 01:53:38;;;;;;;6.15;2.85;;;;;;;13.70;77.40;102372.94;5002168;28;20169;-77
2021/08/24 01:56:21;;;;;;;5.93;3.25;;;;;;;13.66;77.45;102374.19;4999277;28;20035;-77
2021/08/24 01:58:51;;;;;;;6.28;2.70;;;;;;;13.62;77.65;102371.84;4990007;28;20034;-78
2021/08/24 02:01:21;;;;;;;6.18;2.67;;;;;;;13.60;77.44;102378.16;5009340;28;20038;-77
2021/08/24 02:03:52;;;;;;;9.07;3.30;;;;;;;13.56;77.70;102379.38;4991403;28;20121;-78
2021/08/24 02:06:29;;;;;;;5.72;3.20;;;;;;;13.49;77.91;102366.06;5005838;28;20081;-77
2021/08/24 02:09:00;;;;;;;6.50;3.10;;;;;;;13.47;77.84;102375.81;4997960;28;20042;-77
2021/08/24 02:11:29;;;;;;;8.40;3.00;;;;;;;13.46;77.83;102376.75;4991172;28;20062;-77
2021/08/24 02:13:59;;;;;;;5.55;2.92;;;;;;;13.44;77.64;102374.28;4991370;28;20057;-77
2021/08/24 02:16:26;;;;;;;6.43;3.08;;;;;;;13.45;77.55;102372.53;5006608;28;20058;-77
2021/08/24 02:18:57;;;;;;;4.90;2.90;;;;;;;13.43;77.32;102372.66;5006924;28;20042;-77
2021/08/24 02:21:28;;;;;;;7.50;3.10;;;;;;;13.42;77.28;102368.41;4991439;28;20078;-78
2021/08/24 02:23:58;;;;;;;4.97;2.75;;;;;;;13.42;77.42;102372.78;4991179;28;20065;-77
2021/08/24 02:26:27;;;;;;;10.88;2.85;;;;;;;13.40;77.44;102382.53;5006008;28;20034;-78
2021/08/24 02:28:55;;;;;;;5.38;3.08;;;;;;;13.37;77.52;102377.56;5009326;28;20715;-77
2021/08/24 02:31:40;;;;;;;5.40;2.67;;;;;;;13.32;77.65;102378.00;4992705;28;20436;-77
2021/08/24 02:34:38;;;;;;;6.20;2.80;;;;;;;13.29;77.65;102377.41;5001166;28;20079;-77
2021/08/24 02:37:20;;;;;;;4.72;2.97;;;;;;;13.24;77.98;102372.59;4952282;28;20046;-77
2021/08/24 02:40:20;;;;;;;6.33;2.87;;;;;;;13.22;77.98;102382.31;4991029;28;20057;-77
2021/08/24 02:43:17;;;;;;;5.22;2.97;;;;;;;13.20;77.86;102384.25;4990517;28;20046;-77
2021/08/24 02:45:51;;;;;;;4.68;2.85;;;;;;;13.18;77.82;102383.56;4991773;28;20034;-77
2021/08/24 02:48:18;;;;;;;7.38;3.28;;;;;;;13.15;77.95;102383.84;5003891;28;21285;-77
2021/08/24 02:50:44;;;;;;;4.70;2.55;;;;;;;13.14;77.95;102395.22;5005368;28;20096;-77
2021/08/24 02:53:10;;;;;;;5.13;3.03;;;;;;;13.13;77.96;102393.53;5007350;28;20046;-77
2021/08/24 02:55:36;;;;;;;6.00;2.75;;;;;;;13.10;77.84;102391.22;4990796;28;20439;-77
2021/08/24 02:58:03;;;;;;;5.95;3.17;;;;;;;13.11;77.99;102390.25;5006901;28;20034;-77
2021/08/24 03:00:28;;;;;;;5.80;3.08;;;;;;;13.09;78.03;102393.03;4989199;28;20058;-77
2021/08/24 03:02:54;;;;;;;8.02;2.70;;;;;;;13.08;78.13;102393.16;4992281;28;20097;-77
2021/08/24 03:05:19;;;;;;;8.85;3.13;;;;;;;13.05;78.14;102397.66;5002307;28;20018;-77
2021/08/24 03:07:46;;;;;;;8.35;3.40;;;;;;;13.03;78.32;102391.78;4992118;28;20034;-78
2021/08/24 03:10:15;;;;;;;6.60;2.70;;;;;;;13.01;78.24;102401.47;4989694;28;20061;-77
2021/08/24 03:12:47;;;;;;;6.07;3.30;;;;;;;12.99;78.18;102402.56;5004910;28;20053;-77
2021/08/24 03:15:21;;;;;;;6.90;2.60;;;;;;;12.97;78.24;102399.28;4990324;28;20766;-77
2021/08/24 03:18:03;;;;;;;5.05;2.70;;;;;;;12.94;78.14;102405.59;4988159;28;20042;-77
2021/08/24 03:20:37;;;;;;;7.07;2.80;;;;;;;12.94;78.08;102410.78;5009347;28;20042;-77
2021/08/24 03:23:05;;;;;;;4.93;2.63;;;;;;;12.90;78.06;102404.16;4989554;28;20042;-77
2021/08/24 03:25:31;;;;;;;5.38;2.33;;;;;;;12.86;78.47;102410.59;4992619;28;20511;-77
2021/08/24 03:27:58;;;;;;;4.70;2.72;;;;;;;12.82;78.46;102402.22;4987854;28;20034;-77
2021/08/24 03:30:24;;;;;;;7.07;2.70;;;;;;;12.80;78.45;102408.53;5000683;28;20037;-77
2021/08/24 03:32:51;;;;;;;5.22;2.88;;;;;;;12.76;78.48;102397.56;4993895;28;20041;-77
2021/08/24 03:35:19;;;;;;;9.02;2.70;;;;;;;12.73;78.70;102404.81;4994278;28;20030;-78
2021/08/24 03:37:44;;;;;;;5.57;2.75;;;;;;;12.69;78.46;102409.44;5009344;28;20030;-76
2021/08/24 03:40:12;;;;;;;6.25;3.20;;;;;;;12.67;78.57;102406.16;4992543;28;20107;-76
2021/08/24 03:42:38;;;;;;;6.30;2.95;;;;;;;12.63;78.96;102405.59;5005548;28;20049;-77
2021/08/24 03:45:05;;;;;;;5.75;2.83;;;;;;;12.59;78.89;102412.00;5004377;28;20400;-77
2021/08/24 03:47:31;;;;;;;7.15;3.30;;;;;;;12.59;78.91;102411.19;4989187;28;20089;-77
2021/08/24 03:49:57;;;;;;;11.48;3.70;;;;;;;12.56;78.86;102411.44;4991680;28;20029;-77
2021/08/24 03:52:23;;;;;;;4.82;2.50;;;;;;;12.54;79.04;102410.75;5005475;28;20030;-77
2021/08/24 03:54:48;;;;;;;8.65;3.05;;;;;;;12.53;79.09;102415.13;5005674;28;20089;-77
2021/08/24 03:57:14;;;;;;;6.55;2.80;;;;;;;12.51;79.24;102409.25;4988115;28;20034;-77
2021/08/24 03:59:39;;;;;;;5.72;3.30;;;;;;;12.49;79.23;102405.94;5004542;28;20125;-78
2021/08/24 04:02:05;;;;;;;12.43;3.47;;;;;;;12.49;79.41;102418.13;4989827;28;20034;-77
2021/08/24 04:04:31;;;;;;;6.15;2.88;;;;;;;12.48;79.29;102416.47;5004428;28;20018;-77
2021/08/24 04:06:57;;;;;;;6.82;2.97;;;;;;;12.44;79.30;102416.72;5004586;28;20113;-77
2021/08/24 04:09:23;;;;;;;9.00;3.00;;;;;;;12.44;79.37;102411.53;5001941;28;20042;-77
2021/08/24 04:11:49;;;;;;;4.68;2.90;;;;;;;12.43;79.25;102419.44;5004036;28;20530;-77
2021/08/24 04:14:14;;;;;;;6.45;2.85;;;;;;;12.42;79.43;102420.41;5005203;28;20022;-77
2021/08/24 04:16:40;;;;;;;7.32;3.28;;;;;;;12.40;79.13;102423.16;4988823;28;20038;-77
2021/08/24 04:19:11;;;;;;;5.05;2.85;;;;;;;12.39;79.18;102434.50;5005636;28;20026;-78
2021/08/24 04:21:41;;;;;;;7.45;2.78;;;;;;;12.38;79.12;102421.63;5010152;28;20105;-76
2021/08/24 04:24:07;;;;;;;6.82;2.83;;;;;;;12.36;79.17;102423.53;4990881;28;20518;-77
2021/08/24 04:26:33;;;;;;;9.63;3.30;;;;;;;12.32;79.27;102432.53;4990988;28;20451;-77
2021/08/24 04:29:00;;;;;;;5.40;3.15;;;;;;;12.29;79.36;102433.63;4997404;28;20369;-77
2021/08/24 04:31:25;;;;;;;6.50;3.33;;;;;;;12.24;79.76;102430.56;5015631;28;20036;-77
2021/08/24 04:33:51;;;;;;;6.82;3.88;;;;;;;12.20;79.67;102434.38;4993352;28;20054;-77
2021/08/24 04:36:16;;;;;;;7.70;3.85;;;;;;;12.17;79.88;102432.88;5004115;28;20033;-77
2021/08/24 04:38:42;;;;;;;6.07;3.88;;;;;;;12.16;79.96;102430.38;4993759;28;20042;-77
2021/08/24 04:41:07;;;;;;;7.68;2.90;;;;;;;12.15;79.94;102439.97;5010004;28;20030;-77
2021/08/24 04:43:36;;;;;;;6.05;3.38;;;;;;;12.14;80.00;102440.91;5012696;28;20030;-77
2021/08/24 04:46:02;;;;;;;6.63;3.15;;;;;;;12.17;79.69;102440.66;5006972;28;20035;-77
2021/08/24 04:48:28;;;;;;;4.13;2.63;;;;;;;12.17;79.83;102452.84;4986784;28;20037;-77
2021/08/24 04:50:53;;;;;;;6.55;3.25;;;;;;;12.17;79.60;102451.06;4985514;28;20315;-77
2021/08/24 04:53:19;;;;;;;8.43;3.88;;;;;;;12.18;79.74;102451.88;5007203;28;20034;-77
2021/08/24 04:55:44;;;;;;;7.28;3.67;;;;;;;12.15;79.81;102447.78;4971146;28;20026;-77
2021/08/24 04:58:10;;;;;;;8.77;3.92;;;;;;;12.15;79.96;102450.38;5014466;28;20447;-77
2021/08/24 05:00:36;;;;;;;8.65;3.47;;;;;;;12.14;80.00;102453.91;5003809;28;20096;-77
2021/08/24 05:03:02;;;;;;;8.68;3.40;;;;;;;12.14;80.15;102455.69;4988760;28;20077;-78
2021/08/24 05:05:28;;;;;;;8.68;3.90;;;;;;;12.13;80.37;102461.84;5002573;28;20460;-77
2021/08/24 05:07:54;;;;;;;7.25;3.97;;;;;;;12.14;80.69;102466.09;5003723;28;20038;-77
2021/08/24 05:10:20;;;;;;;7.57;3.88;;;;;;;12.13;80.71;102461.84;5002848;28;20567;-77
2021/08/24 05:12:46;;;;;;;7.25;4.07;;;;;;;12.15;80.66;102470.34;5007338;28;20034;-77
2021/08/24 05:15:12;;;;;;;7.78;3.33;;;;;;;12.15;80.51;102470.34;4988133;28;20037;-77
2021/08/24 05:17:38;;;;;;;7.20;3.97;;;;;;;12.19;80.73;102471.75;5002216;28;20117;-77
2021/08/24 05:20:05;;;;;;;8.00;4.35;;;;;;;12.20;80.77;102470.78;5001458;28;20030;-78
2021/08/24 05:22:33;;;;;;;10.38;3.78;;;;;;;12.21;80.77;102468.06;4991041;28;20038;-77
2021/08/24 05:24:59;;;;;;;5.57;3.35;;;;;;;12.24;80.77;102469.56;4989175;28;20240;-77
2021/08/24 05:27:25;;;;;;;8.55;3.78;;;;;;;12.26;80.84;102465.91;5001245;28;20057;-77
2021/08/24 05:29:50;;;;;;;8.02;3.35;;;;;;;12.27;80.57;102469.34;5000992;28;20476;-77
2021/08/24 05:32:16;;;;;;;6.55;3.60;;;;;;;12.27;80.69;102470.16;5007216;28;20491;-77
2021/08/24 05:34:41;;;;;;;10.18;3.80;;;;;;;12.29;80.98;102464.00;4987475;28;20548;-77
2021/08/24 05:37:07;;;;;;;7.45;3.72;;;;;;;12.30;81.17;102471.69;4988052;28;20412;-77
2021/08/24 05:39:33;;;;;;;10.57;4.00;;;;;;;12.33;81.38;102468.00;4993051;28;20045;-77
2021/08/24 05:42:00;;;;;;;6.63;4.20;;;;;;;12.36;81.83;102468.56;4988027;28;20374;-77
2021/08/24 05:44:25;;;;;;;7.43;4.22;;;;;;;12.38;82.10;102477.06;5003153;28;20027;-77
2021/08/24 05:46:50;;;;;;;7.70;4.75;;;;;;;12.41;82.38;102470.78;4990294;28;20057;-78
2021/08/24 05:49:16;;;;;;;8.30;5.05;;;;;;;12.43;82.70;102476.69;5003679;28;20441;-77
2021/08/24 05:51:41;;;;;;;11.65;5.25;;;;;;;12.51;82.84;102476.91;5001077;28;20141;-77
2021/08/24 05:54:07;;;;;;;11.80;5.45;;;;;;;12.56;82.86;102473.91;5005573;28;20041;-77
2021/08/24 05:56:33;;;;;;;9.93;5.10;;;;;;;12.56;83.18;102471.28;4987123;28;20468;-77
2021/08/24 05:58:59;;;;;;;12.48;5.03;;;;;;;12.60;83.05;102481.34;4987602;28;20657;-78
2021/08/24 06:01:27;;;;;;;8.50;4.18;;;;;;;12.67;83.15;102476.41;5003320;28;20069;-77
2021/08/24 06:03:53;;;;;;;8.35;4.68;;;;;;;12.81;82.99;102477.88;4989907;28;20062;-77
2021/08/24 06:06:31;;;;;;;6.75;4.53;;;;;;;13.05;82.37;102481.00;5003204;28;20046;-77
2021/08/24 06:08:57;;;;;;;12.18;5.15;;;;;;;13.36;81.70;102480.16;5002733;28;20515;-77
2021/08/24 06:11:29;;;;;;;10.38;5.40;;;;;;;13.48;80.97;102488.69;4987311;28;20129;-78
2021/08/24 06:13:56;;;;;;;8.48;4.85;;;;;;;13.53;80.84;102487.31;4985274;28;20042;-77
2021/08/24 06:16:22;;;;;;;12.15;6.43;;;;;;;13.54;80.63;102486.38;4986006;28;20026;-78
2021/08/24 06:18:47;;;;;;;10.65;6.40;;;;;;;13.54;80.98;102482.94;5003468;28;20044;-78
2021/08/24 06:21:14;;;;;;;12.00;5.78;;;;;;;13.49;81.20;102487.75;5001955;28;20038;-77
2021/08/24 06:23:40;;;;;;;13.02;5.72;;;;;;;13.46;81.59;102490.59;4986354;28;20052;-78
2021/08/24 06:26:06;;;;;;;11.00;6.28;;;;;;;13.43;81.91;102496.91;5002262;28;20038;-77
2021/08/24 06:28:32;;;;;;;12.63;6.68;;;;;;;13.49;81.87;102492.94;4991249;28;20030;-77
2021/08/24 06:30:58;;;;;;;10.55;6.18;;;;;;;13.53;81.85;102495.13;4989646;28;20037;-78
2021/08/24 06:33:29;;;;;;;13.65;6.40;;;;;;;13.58;82.00;102502.53;4988786;28;20034;-78
2021/08/24 06:35:54;;;;;;;14.57;6.68;;;;;;;13.69;81.97;102499.00;4985016;28;20039;-78
2021/08/24 06:38:20;;;;;;;15.10;6.78;;;;;;;13.78;81.58;102504.22;4986228;28;20039;-77
2021/08/24 06:40:45;;;;;;;13.23;5.75;;;;;;;13.83;81.63;102504.66;5007938;28;20030;-77
2021/08/24 06:43:11;;;;;;;10.75;5.32;;;;;;;13.93;81.59;102503.84;4988007;28;20054;-78
2021/08/24 06:45:36;;;;;;;10.82;6.45;;;;;;;14.06;81.58;102498.34;5004766;28;20046;-77
2021/08/24 06:48:02;;;;;;;19.48;7.20;;;;;;;14.19;80.96;102497.09;5006783;28;20644;-77
2021/08/24 06:50:29;;;;;;;15.48;7.60;;;;;;;14.41;79.56;102500.38;4988054;28;20138;-76
2021/08/24 06:52:55;;;;;;;12.32;7.03;;;;;;;14.65;79.32;102491.28;4990940;28;20100;-77
2021/08/24 06:55:25;;;;;;;12.40;7.07;;;;;;;14.76;78.80;102494.53;5011567;28;20450;-77
2021/08/24 06:57:51;;;;;;;33.65;19.15;;;;;;;14.96;77.89;102499.72;5004387;28;20030;-76
2021/08/24 07:00:20;;;;;;;15.85;8.57;;;;;;;15.30;77.43;102493.91;4994256;28;20038;-77
2021/08/24 07:02:46;;;;;;;14.00;6.60;;;;;;;15.73;75.46;102493.25;5004956;28;20088;-76
2021/08/24 07:05:14;;;;;;;14.43;6.65;;;;;;;16.29;73.15;102488.66;4991864;28;20684;-76
2021/08/24 07:07:39;;;;;;;14.55;7.15;;;;;;;16.94;71.13;102482.16;5005267;28;20432;-76
2021/08/24 07:10:06;;;;;;;12.65;6.85;;;;;;;17.57;68.07;102478.22;5010298;28;20041;-76
2021/08/24 07:12:32;;;;;;;19.85;8.45;;;;;;;18.06;66.75;102482.72;5009788;28;20109;-76
2021/08/24 07:14:57;;;;;;;15.68;6.57;;;;;;;18.64;64.16;102486.09;4990706;28;20133;-75
2021/08/24 07:17:23;;;;;;;14.00;7.10;;;;;;;18.49;62.04;102488.56;5005811;28;20053;-75
2021/08/24 07:19:53;;;;;;;14.98;7.60;;;;;;;18.58;61.99;102482.31;4994066;28;20081;-76
2021/08/24 07:22:19;;;;;;;14.55;6.50;;;;;;;18.95;62.30;102487.97;5002833;28;20074;-76
2021/08/24 07:24:44;;;;;;;14.35;6.22;;;;;;;19.55;61.46;102483.88;4992926;28;20022;-77
2021/08/24 07:27:10;;;;;;;19.52;7.93;;;;;;;20.03;59.43;102480.06;4985637;28;20126;-75
2021/08/24 07:29:35;;;;;;;13.98;7.00;;;;;;;20.21;57.83;102487.66;5013230;28;20032;-76
2021/08/24 07:32:02;;;;;;;12.15;6.20;;;;;;;20.51;57.96;102489.47;4989139;28;20093;-76
2021/08/24 07:34:27;;;;;;;15.18;6.95;;;;;;;20.82;57.09;102485.88;4990958;28;20088;-77
2021/08/24 07:36:53;;;;;;;23.17;7.07;;;;;;;21.00;56.22;102483.66;4987810;28;20038;-76
2021/08/24 07:39:19;;;;;;;16.98;7.88;;;;;;;21.14;55.02;102484.66;4994021;28;20038;-76
2021/08/24 07:41:44;;;;;;;18.48;8.07;;;;;;;21.42;53.44;102484.75;5002515;28;20037;-76
2021/08/24 07:44:11;;;;;;;16.52;7.72;;;;;;;20.89;54.00;102489.41;5008941;28;20038;-76
2021/08/24 07:46:36;;;;;;;12.88;6.30;;;;;;;21.24;53.55;102479.06;5007160;28;20047;-76
2021/08/24 07:49:03;;;;;;;14.07;6.60;;;;;;;21.52;53.74;102484.47;4993748;28;20029;-76
2021/08/24 07:51:28;;;;;;;13.80;6.68;;;;;;;21.75;54.27;102492.19;4989301;28;20089;-76
2021/08/24 07:53:54;;;;;;;11.75;5.50;;;;;;;22.10;52.95;102489.63;4988110;28;20034;-77
2021/08/24 07:56:21;;;;;;;12.38;6.25;;;;;;;22.47;52.43;102490.28;5003328;28;20406;-77
2021/08/24 07:58:48;;;;;;;12.02;5.22;;;;;;;22.73;51.23;102490.44;4989908;28;20455;-73
2021/08/24 08:01:13;;;;;;;13.00;5.78;;;;;;;22.61;49.22;102484.06;4988547;28;20396;-73
2021/08/24 08:03:39;;;;;;;12.43;5.53;;;;;;;21.93;50.20;102494.38;4987962;28;20472;-76
2021/08/24 08:06:05;;;;;;;15.55;5.47;;;;;;;22.32;49.77;102488.59;5010920;28;20488;-76
2021/08/24 08:08:32;;;;;;;14.32;5.68;;;;;;;22.47;51.99;102479.72;4988549;28;20062;-77
2021/08/24 08:10:57;;;;;;;13.55;5.30;;;;;;;22.39;49.76;102495.75;5003577;28;20046;-77
2021/08/24 08:13:28;;;;;;;25.42;6.82;;;;;;;22.26;50.32;102494.63;4989860;28;20811;-76
2021/08/24 08:15:54;;;;;;;11.82;5.65;;;;;;;22.49;49.71;102507.59;4990569;28;20219;-77
2021/08/24 08:18:20;;;;;;;15.35;5.50;;;;;;;22.94;49.63;102508.03;4996546;28;20076;-79
2021/08/24 08:20:46;;;;;;;15.75;6.10;;;;;;;22.64;47.57;102506.66;5005494;28;20062;-77
2021/08/24 08:23:15;;;;;;;14.45;5.38;;;;;;;22.84;47.81;102501.47;4996211;28;20065;-77
2021/08/24 08:25:41;;;;;;;16.90;6.35;;;;;;;22.64;46.75;102501.34;4996934;28;20037;-76
2021/08/24 08:28:07;;;;;;;14.13;6.03;;;;;;;22.44;48.36;102495.97;5012364;28;20042;-77
2021/08/24 08:30:34;;;;;;;18.23;5.80;;;;;;;22.80;47.43;102492.31;5008148;28;20077;-76
2021/08/24 08:33:01;;;;;;;9.77;4.55;;;;;;;22.91;46.45;102500.47;4999424;28;20113;-77
2021/08/24 08:35:28;;;;;;;10.13;4.18;;;;;;;23.36;45.56;102501.84;5013469;28;20057;-77
2021/08/24 08:37:54;;;;;;;14.52;4.43;;;;;;;23.13;43.42;102508.31;5008164;28;20038;-76
2021/08/24 08:40:27;;;;;;;6.80;3.47;;;;;;;22.53;44.95;102502.75;5002022;28;20041;-79
2021/08/24 08:43:21;;;;;;;8.95;4.03;;;;;;;22.77;45.36;102498.78;4990696;28;20053;-77
2021/08/24 08:45:49;;;;;;;9.35;3.78;;;;;;;22.48;46.17;102499.88;5004041;28;20030;-76
2021/08/24 08:48:44;;;;;;;10.45;4.60;;;;;;;23.19;44.06;102493.47;5000777;28;20404;-78
2021/08/24 08:51:34;;;;;;;12.20;3.30;;;;;;;23.24;44.60;102493.69;5003885;28;20085;-77
2021/08/24 08:54:34;;;;;;;7.65;3.60;;;;;;;22.87;43.98;102491.31;5001792;28;20042;-77
2021/08/24 08:57:12;;;;;;;9.40;3.10;;;;;;;23.20;43.85;102487.97;4990887;28;20042;-77
2021/08/24 08:59:48;;;;;;;7.82;2.97;;;;;;;23.06;44.09;102489.78;5005008;28;20752;-77
2021/08/24 09:02:40;;;;;;;6.75;2.97;;;;;;;23.61;43.95;102481.75;5006737;28;20252;-77
2021/08/24 09:05:07;;;;;;;6.90;2.83;;;;;;;23.60;41.92;102487.25;4988264;28;20073;-77
2021/08/24 09:07:39;;;;;;;7.72;3.13;;;;;;;23.97;42.21;102477.09;4988620;28;20634;-77
2021/08/24 09:10:10;;;;;;;9.18;3.38;;;;;;;23.86;40.99;102483.81;5006076;28;20038;-78
2021/08/24 09:12:36;;;;;;;6.07;2.47;;;;;;;23.72;39.54;102482.97;4989503;28;20096;-77
2021/08/24 09:15:07;;;;;;;6.88;2.92;;;;;;;23.39;39.69;102473.16;5006566;28;20714;-77
2021/08/24 09:17:38;;;;;;;4.20;2.50;;;;;;;23.26;40.61;102479.25;5002657;28;20065;-77
2021/08/24 09:20:23;;;;;;;5.45;2.17;;;;;;;23.52;41.07;102475.81;4999073;28;20402;-77
2021/08/24 09:22:49;;;;;;;4.55;2.17;;;;;;;23.94;41.05;102474.84;4992353;28;20092;-77
2021/08/24 09:25:23;;;;;;;7.30;3.10;;;;;;;23.15;39.23;102476.38;5008464;28;20563;-76
2021/08/24 09:28:09;;;;;;;11.05;2.70;;;;;;;22.64;40.25;102480.22;4995802;28;20137;-76
2021/08/24 09:30:37;;;;;;;6.00;2.58;;;;;;;23.03;41.62;102476.09;5006351;28;20060;-78
2021/08/24 09:33:06;;;;;;;4.57;2.70;;;;;;;23.69;41.12;102470.94;5008447;28;20125;-78
2021/08/24 09:35:43;;;;;;;4.20;2.20;;;;;;;23.80;40.17;102476.69;5006744;28;20062;-78
2021/08/24 09:38:24;;;;;;;3.25;2.00;;;;;;;23.61;39.31;102465.88;4983988;28;20073;-75
2021/08/24 09:40:53;;;;;;;5.43;2.42;;;;;;;23.95;38.08;102464.06;4991591;28;20069;-74
2021/08/24 09:43:27;;;;;;;9.02;2.33;;;;;;;23.58;36.85;102458.31;4990521;28;20041;-77
2021/08/24 09:46:10;;;;;;;3.55;1.88;;;;;;;23.50;38.27;102469.13;5004772;28;20041;-75
2021/08/24 09:49:00;;;;;;;4.85;2.05;;;;;;;23.20;37.29;102464.16;5004654;28;20034;-75
2021/08/24 09:51:36;;;;;;;8.05;2.28;;;;;;;23.37;37.27;102453.22;4989804;28;20037;-74
2021/08/24 09:54:06;;;;;;;4.82;2.17;;;;;;;23.60;39.12;102455.47;5004366;28;20485;-75
2021/08/24 09:56:39;;;;;;;6.95;2.10;;;;;;;23.90;38.06;102454.09;5005603;28;20030;-78
2021/08/24 09:59:05;;;;;;;8.13;2.13;;;;;;;23.37;34.76;102455.88;5003863;28;20568;-76
2021/08/24 10:01:46;;;;;;;8.02;2.30;;;;;;;23.00;38.25;102458.81;4988130;28;20037;-77
2021/08/24 10:04:11;;;;;;;6.75;3.05;;;;;;;23.00;37.75;102457.97;4983869;28;20031;-78
2021/08/24 10:06:53;;;;;;;6.38;2.00;;;;;;;23.26;35.58;102458.09;4982089;28;20771;-77
2021/08/24 10:09:37;;;;;;;6.63;2.17;;;;;;;22.98;36.46;102458.19;4995181;28;20065;-75
2021/08/24 10:12:22;;;;;;;3.97;1.98;;;;;;;23.10;36.58;102453.16;4994307;28;20531;-76
2021/08/24 10:14:50;;;;;;;9.30;2.40;;;;;;;23.24;35.45;102451.38;5000287;28;20030;-78
2021/08/24 10:17:34;;;;;;;7.13;2.55;;;;;;;23.13;36.49;102450.09;4980020;28;20035;-77
2021/08/24 10:20:15;;;;;;;7.32;2.45;;;;;;;22.76;37.08;102454.06;4981913;28;20042;-77
2021/08/24 10:22:40;;;;;;;4.40;2.30;;;;;;;22.62;36.33;102445.22;4973112;28;20373;-79
2021/08/24 10:25:09;;;;;;;7.32;2.78;;;;;;;22.96;38.27;102451.47;4996308;28;20034;-78
2021/08/24 10:28:13;;;;;;;14.98;2.60;;;;;;;23.11;37.72;102434.47;4999967;28;20043;-81
2021/08/24 10:30:47;;;;;;;4.70;1.85;;;;;;;23.18;37.67;102441.59;4905604;28;20442;-78
2021/08/24 10:33:24;;;;;;;5.05;2.40;;;;;;;23.37;37.20;102447.94;4970467;28;20038;-78
2021/08/24 10:35:56;;;;;;;4.60;2.00;;;;;;;23.27;37.61;102448.31;4993399;28;20149;-77
2021/08/24 10:38:40;;;;;;;6.57;2.40;;;;;;;23.15;38.77;102445.47;4994187;28;21840;-77
2021/08/24 10:41:35;;;;;;;3.45;1.58;;;;;;;23.24;36.28;102441.59;4982565;28;20084;-79
2021/08/24 10:44:14;;;;;;;5.95;2.05;;;;;;;22.93;36.91;102447.41;4980595;28;20034;-77
2021/08/24 10:46:52;;;;;;;5.82;2.40;;;;;;;22.85;37.86;102429.03;4999089;28;20148;-78
2021/08/24 10:49:17;;;;;;;5.95;2.60;;;;;;;23.15;38.13;102431.41;5012044;28;20034;-77
2021/08/24 10:52:14;;;;;;;8.10;2.42;;;;;;;23.21;37.75;102454.44;5005827;28;20037;-77
2021/08/24 10:54:52;;;;;;;3.53;2.00;;;;;;;22.44;38.08;102424.63;5009706;28;20049;-75
2021/08/24 10:57:45;;;;;;;4.38;1.85;;;;;;;23.00;39.43;102427.06;4986654;28;20036;-78
2021/08/24 11:00:16;;;;;;;4.50;2.05;;;;;;;23.20;38.28;102431.63;4997894;28;20042;-75
2021/08/24 11:03:07;;;;;;;6.97;2.20;;;;;;;22.89;36.80;102436.41;5005735;28;20242;-73
2021/08/24 11:05:57;;;;;;;5.60;2.55;;;;;;;23.09;38.66;102425.06;5003731;28;20042;-76
2021/08/24 11:08:53;;;;;;;5.10;2.35;;;;;;;23.28;36.75;102423.47;5007539;28;20034;-77
2021/08/24 11:11:50;;;;;;;6.82;2.17;;;;;;;23.18;36.41;102425.72;4988187;28;20038;-78
2021/08/24 11:14:25;;;;;;;5.10;2.38;;;;;;;22.97;37.54;102424.00;4990858;28;20035;-75
2021/08/24 11:17:16;;;;;;;5.43;2.30;;;;;;;22.97;38.72;102426.66;4992929;28;20023;-78
2021/08/24 11:19:52;;;;;;;3.90;2.10;;;;;;;22.93;38.17;102427.03;5007176;28;20038;-78
2021/08/24 11:22:36;;;;;;;5.78;2.33;;;;;;;23.07;37.58;102419.19;4991657;28;20026;-77
2021/08/24 11:25:05;;;;;;;6.70;2.25;;;;;;;23.08;38.43;102412.88;5000502;28;20030;-76
2021/08/24 11:28:08;;;;;;;6.28;2.78;;;;;;;23.27;38.44;102421.88;5008296;28;20069;-78
2021/08/24 11:30:57;;;;;;;6.25;2.28;;;;;;;23.05;37.47;102415.91;5003056;28;20608;-78
2021/08/24 11:33:34;;;;;;;4.30;2.10;;;;;;;22.95;38.09;102413.63;4996565;28;20033;-77
2021/08/24 11:36:06;;;;;;;4.45;2.22;;;;;;;23.00;37.60;102410.38;5005009;28;20034;-78
2021/08/24 11:38:41;;;;;;;5.73;2.40;;;;;;;23.00;37.28;102413.84;4997180;28;20041;-77
2021/08/24 11:41:19;;;;;;;7.03;2.33;;;;;;;23.03;38.11;102413.47;5007034;28;20045;-78
2021/08/24 11:44:05;;;;;;;4.97;2.53;;;;;;;23.16;37.46;102403.94;4996639;28;20137;-78